Time;durP1;ratioP1;P1;durP2;ratioP2;P2;SDS_P1;SDS_P2;PMS_P1;PMS_P2;Temp;Humidity;BMP_temperature;BMP_pressure;BME280_temperature;BME280_humidity;BME280_pressure;Samples;Min_cycle;Max_cycle;Signal;HPM_P1;HPM_P2
2022/05/16 00:01:53;;;;;;;6.95;4.03;;;21.70;65.80;;;;;;5032566;28;20029;-63
2022/05/16 00:04:20;;;;;;;9.95;4.75;;;21.70;65.60;;;;;;5033318;28;20041;-64
2022/05/16 00:06:45;;;;;;;8.95;4.38;;;21.80;65.70;;;;;;5033930;28;20029;-64
2022/05/16 00:09:11;;;;;;;9.60;4.60;;;21.70;65.50;;;;;;5067485;28;20040;-63
2022/05/16 00:11:36;;;;;;;7.50;4.22;;;21.70;66.70;;;;;;5035451;28;20028;-63
2022/05/16 00:14:02;;;;;;;9.45;4.50;;;21.70;65.60;;;;;;5035899;28;20078;-63
2022/05/16 00:16:28;;;;;;;8.25;4.60;;;21.70;65.60;;;;;;5032260;28;20025;-61
2022/05/16 00:18:53;;;;;;;8.73;4.03;;;21.70;65.60;;;;;;5033457;28;20041;-64
2022/05/16 00:21:19;;;;;;;9.52;4.07;;;21.70;65.50;;;;;;5032347;28;20456;-63
2022/05/16 00:23:45;;;;;;;7.32;4.00;;;21.70;65.80;;;;;;5031604;28;20490;-64
2022/05/16 00:26:11;;;;;;;8.50;4.22;;;21.70;65.50;;;;;;5037867;28;20036;-65
2022/05/16 00:28:36;;;;;;;7.13;4.10;;;21.70;65.70;;;;;;5034300;28;20497;-63
2022/05/16 00:31:03;;;;;;;7.28;4.20;;;21.60;65.50;;;;;;5038439;28;20051;-64
2022/05/16 00:33:29;;;;;;;7.10;4.15;;;21.60;65.50;;;;;;5033061;28;20123;-64
2022/05/16 00:35:54;;;;;;;9.57;4.25;;;21.60;65.70;;;;;;5040803;28;20108;-63
2022/05/16 00:38:20;;;;;;;8.40;4.60;;;21.60;65.50;;;;;;5042041;28;20075;-64
2022/05/16 00:40:46;;;;;;;8.32;4.10;;;21.60;65.40;;;;;;5038690;28;20033;-63
2022/05/16 00:43:12;;;;;;;8.52;4.40;;;21.60;65.40;;;;;;5034609;28;20529;-63
2022/05/16 00:45:38;;;;;;;6.63;3.90;;;21.60;65.50;;;;;;5037595;28;20494;-63
2022/05/16 00:48:04;;;;;;;7.63;4.20;;;21.50;65.40;;;;;;5044555;28;20029;-64
2022/05/16 00:50:29;;;;;;;7.75;4.20;;;21.60;65.60;;;;;;5039163;28;20032;-63
2022/05/16 00:52:55;;;;;;;7.80;3.85;;;21.60;65.40;;;;;;5037289;28;20029;-64
2022/05/16 00:55:33;;;;;;;8.57;4.05;;;21.60;65.30;;;;;;5039337;28;20025;-64
2022/05/16 00:58:01;;;;;;;8.43;4.40;;;21.60;65.40;;;;;;5047566;28;20024;-63
2022/05/16 01:00:29;;;;;;;8.93;4.10;;;21.50;65.50;;;;;;5045181;28;20140;-64
2022/05/16 01:05:45;;;;;;;7.65;4.10;;;21.50;65.30;;;;;;5033527;28;20528;-64
2022/05/16 01:08:12;;;;;;;8.70;4.70;;;21.50;65.40;;;;;;5036805;28;20061;-63
2022/05/16 01:10:38;;;;;;;7.50;4.00;;;21.50;65.30;;;;;;5036119;28;20108;-63
2022/05/16 01:13:04;;;;;;;8.20;4.10;;;21.50;65.30;;;;;;5041289;28;20537;-64
2022/05/16 01:15:32;;;;;;;7.22;3.92;;;21.50;65.50;;;;;;5039759;28;20034;-64
2022/05/16 01:17:57;;;;;;;7.38;3.90;;;21.50;65.40;;;;;;5042647;28;20508;-63
2022/05/16 01:20:23;;;;;;;8.13;3.95;;;21.50;65.40;;;;;;5039793;28;20038;-64
2022/05/16 01:22:50;;;;;;;5.90;3.50;;;21.50;65.30;;;;;;5036040;28;20019;-64
2022/05/16 01:25:22;;;;;;;7.53;4.00;;;21.40;65.20;;;;;;5051185;28;20486;-63
2022/05/16 01:27:53;;;;;;;7.90;4.20;;;21.50;65.30;;;;;;5041943;28;20036;-62
2022/05/16 01:30:31;;;;;;;8.82;3.88;;;21.40;65.20;;;;;;5034164;28;20052;-63
2022/05/16 01:32:57;;;;;;;6.93;3.63;;;21.40;65.10;;;;;;5037613;28;20424;-63
2022/05/16 01:35:27;;;;;;;7.60;3.72;;;21.40;65.10;;;;;;5035488;28;20043;-64
2022/05/16 01:40:37;;;;;;;8.75;4.30;;;21.40;65.20;;;;;;5036857;28;20445;-63
2022/05/16 01:43:03;;;;;;;9.13;3.80;;;21.40;65.20;;;;;;5031417;28;20025;-64
2022/05/16 01:45:29;;;;;;;8.23;3.88;;;21.40;65.20;;;;;;5032164;28;20053;-64
2022/05/16 01:47:55;;;;;;;8.90;4.03;;;21.40;65.20;;;;;;5041503;28;20027;-63
2022/05/16 01:50:22;;;;;;;8.32;3.83;;;21.40;65.20;;;;;;5032659;28;20056;-64
2022/05/16 01:52:47;;;;;;;6.55;3.42;;;21.40;65.20;;;;;;5033978;28;20662;-63
2022/05/16 01:55:13;;;;;;;7.13;3.80;;;21.30;65.10;;;;;;5033383;28;20514;-63
2022/05/16 01:57:39;;;;;;;8.93;3.97;;;21.40;65.10;;;;;;5041453;28;20028;-64
2022/05/16 02:00:06;;;;;;;7.55;3.75;;;21.40;65.10;;;;;;5037235;28;20045;-63
2022/05/16 02:02:32;;;;;;;7.22;3.80;;;21.30;65.00;;;;;;5036214;28;20389;-63
2022/05/16 02:04:58;;;;;;;6.93;3.55;;;21.30;65.10;;;;;;5040666;28;20032;-64
2022/05/16 02:07:23;;;;;;;7.63;3.70;;;21.30;65.10;;;;;;5036189;28;20029;-64
2022/05/16 02:09:49;;;;;;;7.38;3.70;;;21.30;65.10;;;;;;5034445;28;20033;-63
2022/05/16 02:12:14;;;;;;;6.18;3.47;;;21.30;65.10;;;;;;5033004;28;20033;-64
2022/05/16 02:14:40;;;;;;;6.25;3.40;;;21.30;65.10;;;;;;5034213;28;20029;-64
2022/05/16 02:17:06;;;;;;;6.80;3.50;;;21.30;65.00;;;;;;5033723;28;20029;-64
2022/05/16 02:19:31;;;;;;;7.03;3.45;;;21.30;65.00;;;;;;5030731;28;20079;-64
2022/05/16 02:24:42;;;;;;;7.97;3.63;;;21.30;65.10;;;;;;5032469;28;20068;-63
2022/05/16 02:27:12;;;;;;;8.00;3.75;;;21.30;65.10;;;;;;5032947;28;20041;-64
2022/05/16 02:29:37;;;;;;;8.20;3.78;;;21.30;65.10;;;;;;5039585;28;20048;-64
2022/05/16 02:32:04;;;;;;;8.98;3.85;;;21.30;65.10;;;;;;5039011;28;20071;-64
2022/05/16 02:34:29;;;;;;;8.52;3.70;;;21.20;65.00;;;;;;5042017;28;20021;-64
2022/05/16 02:36:55;;;;;;;8.70;3.78;;;21.20;65.00;;;;;;5035065;28;20025;-63
2022/05/16 02:39:21;;;;;;;6.80;3.17;;;21.20;65.00;;;;;;5032951;28;20045;-64
2022/05/16 02:41:46;;;;;;;8.05;3.60;;;21.20;65.00;;;;;;5042295;28;20063;-64
2022/05/16 02:44:13;;;;;;;9.02;3.65;;;21.20;65.10;;;;;;5033230;28;20065;-64
2022/05/16 02:46:39;;;;;;;8.32;3.83;;;21.20;65.00;;;;;;5033319;28;20053;-64
2022/05/16 02:49:04;;;;;;;8.70;3.40;;;21.20;65.00;;;;;;5041898;28;20036;-64
2022/05/16 02:51:30;;;;;;;7.03;3.45;;;21.20;65.00;;;;;;5031388;28;20538;-64
2022/05/16 02:53:56;;;;;;;7.82;3.78;;;21.20;65.00;;;;;;5036112;28;20021;-63
2022/05/16 02:56:22;;;;;;;7.95;3.35;;;21.20;65.00;;;;;;5030939;28;20457;-65
2022/05/16 02:58:47;;;;;;;7.88;3.78;;;21.20;65.00;;;;;;5034505;28;20454;-64
2022/05/16 03:01:13;;;;;;;7.40;3.30;;;21.20;65.00;;;;;;5032134;28;20044;-63
2022/05/16 03:03:39;;;;;;;7.32;3.40;;;21.10;64.90;;;;;;5036864;28;20029;-64
2022/05/16 03:06:05;;;;;;;7.32;3.47;;;21.20;66.00;;;;;;5032211;28;20036;-64
2022/05/16 03:08:31;;;;;;;7.68;3.40;;;21.10;64.90;;;;;;5034789;28;20036;-63
2022/05/16 03:10:57;;;;;;;8.85;3.40;;;21.10;64.90;;;;;;5035371;28;20405;-64
2022/05/16 03:13:23;;;;;;;7.32;3.30;;;21.10;64.90;;;;;;5030876;28;20044;-64
2022/05/16 03:15:49;;;;;;;7.72;3.67;;;21.20;65.10;;;;;;5030601;28;20479;-63
2022/05/16 03:18:15;;;;;;;7.57;3.47;;;21.10;64.90;;;;;;5031528;28;20478;-64
2022/05/16 03:20:41;;;;;;;5.93;3.10;;;21.10;65.00;;;;;;5037016;28;20033;-64
2022/05/16 03:23:06;;;;;;;7.90;3.70;;;21.10;64.90;;;;;;5039461;28;21060;-64
2022/05/16 03:25:32;;;;;;;7.95;3.30;;;21.10;64.90;;;;;;5035036;28;20032;-64
2022/05/16 03:27:58;;;;;;;8.63;3.38;;;21.10;64.90;;;;;;5031701;28;20033;-63
2022/05/16 03:30:24;;;;;;;8.23;3.28;;;21.10;64.90;;;;;;5031182;28;20033;-64
2022/05/16 03:32:50;;;;;;;8.93;3.30;;;21.10;64.90;;;;;;5039573;28;20017;-63
2022/05/16 03:35:15;;;;;;;6.20;2.97;;;21.10;64.90;;;;;;5033433;28;20048;-64
2022/05/16 03:37:41;;;;;;;7.40;3.45;;;21.00;64.80;;;;;;5034772;28;20082;-64
2022/05/16 03:42:52;;;;;;;6.85;3.22;;;21.10;64.90;;;;;;5034148;28;20124;-64
2022/05/16 03:45:17;;;;;;;7.03;3.42;;;21.00;64.80;;;;;;5032740;28;20080;-64
2022/05/16 03:47:43;;;;;;;7.50;3.20;;;21.10;64.90;;;;;;5036389;28;20048;-64
2022/05/16 03:50:09;;;;;;;7.80;3.50;;;21.00;64.80;;;;;;5036492;28;20465;-64
2022/05/16 03:52:35;;;;;;;7.72;3.30;;;21.00;64.90;;;;;;5035676;28;20033;-64
2022/05/16 03:55:00;;;;;;;7.68;3.53;;;21.00;64.90;;;;;;5034651;28;20530;-64
2022/05/16 03:57:26;;;;;;;7.13;3.20;;;21.00;64.80;;;;;;5032407;28;20037;-64
2022/05/16 03:59:51;;;;;;;6.15;2.78;;;21.00;64.80;;;;;;5037593;28;20041;-63
2022/05/16 04:02:20;;;;;;;8.20;3.25;;;21.00;64.90;;;;;;5039185;28;20389;-63
2022/05/16 04:04:46;;;;;;;6.70;3.10;;;21.00;64.90;;;;;;5033030;28;20029;-63
2022/05/16 04:07:12;;;;;;;6.60;3.38;;;21.00;65.00;;;;;;5034854;28;20056;-63
2022/05/16 04:09:39;;;;;;;7.28;3.20;;;21.00;65.10;;;;;;5034507;28;20043;-64
2022/05/16 04:12:05;;;;;;;6.55;3.05;;;21.00;65.10;;;;;;5034894;28;20403;-63
2022/05/16 04:14:32;;;;;;;6.82;3.28;;;21.00;65.10;;;;;;5037506;28;20485;-64
2022/05/16 04:16:58;;;;;;;6.05;3.17;;;21.00;65.20;;;;;;5032368;28;20035;-64
2022/05/16 04:19:25;;;;;;;7.72;3.80;;;21.00;65.30;;;;;;5030477;28;20416;-64
2022/05/16 04:21:50;;;;;;;8.98;3.70;;;21.00;65.20;;;;;;5037692;28;20036;-63
2022/05/16 04:24:16;;;;;;;7.35;3.40;;;20.90;65.20;;;;;;5032195;28;20521;-63
2022/05/16 04:26:42;;;;;;;7.43;3.38;;;21.00;65.30;;;;;;5036435;28;20029;-63
2022/05/16 04:29:08;;;;;;;7.88;3.38;;;21.00;65.40;;;;;;5036053;28;20091;-63
2022/05/16 04:31:34;;;;;;;7.35;3.35;;;20.90;65.40;;;;;;5036497;28;20029;-63
2022/05/16 04:33:59;;;;;;;7.80;3.70;;;21.00;65.40;;;;;;5028309;28;20040;-63
2022/05/16 04:36:25;;;;;;;6.45;3.38;;;20.90;65.40;;;;;;5033833;28;20025;-63
2022/05/16 04:38:51;;;;;;;6.57;3.20;;;21.00;65.50;;;;;;5032516;28;20029;-63
2022/05/16 04:44:00;;;;;;;7.25;3.78;;;20.90;65.50;;;;;;5037535;28;20116;-63
2022/05/16 04:46:26;;;;;;;6.65;3.33;;;20.90;65.50;;;;;;5032035;28;20485;-65
2022/05/16 04:48:52;;;;;;;6.82;3.13;;;21.00;65.60;;;;;;5031114;28;20040;-65
2022/05/16 04:51:17;;;;;;;7.40;3.33;;;20.90;65.60;;;;;;5033352;28;20449;-65
2022/05/16 04:53:43;;;;;;;8.70;3.50;;;20.90;65.50;;;;;;5034314;28;20445;-65
2022/05/16 04:56:09;;;;;;;7.38;3.53;;;20.90;65.60;;;;;;5061797;28;20519;-66
2022/05/16 04:58:34;;;;;;;8.35;3.53;;;20.90;65.50;;;;;;5031169;28;20033;-65
2022/05/16 05:01:01;;;;;;;8.88;3.58;;;20.90;65.50;;;;;;5031769;28;20041;-65
2022/05/16 05:03:26;;;;;;;9.50;3.60;;;20.90;65.70;;;;;;5035074;28;20017;-65
2022/05/16 05:05:53;;;;;;;8.43;3.42;;;20.90;65.70;;;;;;5037849;28;20103;-65
2022/05/16 05:08:18;;;;;;;8.57;3.50;;;20.90;66.10;;;;;;5039875;28;20037;-65
2022/05/16 05:16:17;;;;;;;7.93;3.50;;;21.00;66.70;;;;;;5038114;28;20414;-65
2022/05/16 05:18:43;;;;;;;9.00;3.65;;;21.00;66.70;;;;;;5051702;28;20240;-65
2022/05/16 05:21:09;;;;;;;8.45;3.50;;;21.00;66.70;;;;;;5033452;28;20284;-64
2022/05/16 05:23:35;;;;;;;8.32;3.72;;;21.00;66.70;;;;;;5032605;28;20017;-66
2022/05/16 05:26:01;;;;;;;10.02;3.75;;;21.00;67.30;;;;;;5036781;28;20458;-65
2022/05/16 05:28:27;;;;;;;8.25;3.72;;;21.00;67.00;;;;;;5036664;28;20056;-66
2022/05/16 05:30:52;;;;;;;8.98;3.78;;;21.00;67.00;;;;;;5037827;28;20426;-68
2022/05/16 05:33:18;;;;;;;14.13;3.90;;;21.10;67.00;;;;;;5034734;28;20519;-63
2022/05/16 05:35:44;;;;;;;10.02;3.33;;;21.00;66.90;;;;;;5044912;28;20498;-65
2022/05/16 05:38:09;;;;;;;13.63;3.65;;;21.00;66.70;;;;;;5036430;28;20725;-66
2022/05/16 05:40:37;;;;;;;9.00;3.88;;;21.10;66.90;;;;;;5036541;28;20325;-65
2022/05/16 05:43:07;;;;;;;9.13;3.58;;;21.10;66.70;;;;;;5036730;28;20024;-65
2022/05/16 05:45:33;;;;;;;9.57;3.78;;;21.00;66.70;;;;;;5038305;28;20052;-65
2022/05/16 05:47:59;;;;;;;11.88;3.50;;;21.00;66.60;;;;;;5036613;28;20038;-65
2022/05/16 05:50:25;;;;;;;8.07;3.50;;;21.10;66.80;;;;;;5035957;28;20026;-65
2022/05/16 05:52:50;;;;;;;9.18;3.60;;;21.10;66.60;;;;;;5032221;28;20033;-65
2022/05/16 05:55:16;;;;;;;10.15;3.28;;;21.00;66.40;;;;;;5032920;28;20025;-65
2022/05/16 05:57:42;;;;;;;8.80;3.30;;;21.00;66.40;;;;;;5031482;28;20025;-65
2022/05/16 06:00:09;;;;;;;10.75;3.65;;;21.00;66.40;;;;;;5032403;28;20048;-65
2022/05/16 06:02:40;;;;;;;9.80;3.55;;;21.10;66.30;;;;;;5033605;28;20068;-64
2022/05/16 06:05:10;;;;;;;11.60;3.70;;;21.10;66.20;;;;;;5035454;28;20474;-65
2022/05/16 06:07:35;;;;;;;9.05;3.45;;;21.10;66.20;;;;;;5037385;28;20543;-65
2022/05/16 06:10:01;;;;;;;11.85;3.63;;;21.00;66.20;;;;;;5035079;28;20061;-65
2022/05/16 06:12:26;;;;;;;10.48;3.40;;;21.10;66.20;;;;;;5036087;28;20044;-65
2022/05/16 06:14:52;;;;;;;8.98;3.20;;;21.10;66.20;;;;;;5035289;28;20096;-65
2022/05/16 06:17:20;;;;;;;7.07;3.08;;;21.10;66.20;;;;;;5043397;28;20215;-65
2022/05/16 06:19:46;;;;;;;10.60;3.40;;;21.00;66.10;;;;;;5043026;28;20045;-65
2022/05/16 06:22:12;;;;;;;9.82;3.25;;;21.00;66.10;;;;;;5031693;28;20021;-65
2022/05/16 06:27:22;;;;;;;8.65;3.40;;;21.10;66.00;;;;;;5037210;28;20123;-65
2022/05/16 06:29:47;;;;;;;8.95;3.20;;;21.10;66.00;;;;;;5037655;28;20096;-65
2022/05/16 06:32:13;;;;;;;9.77;3.53;;;21.10;65.90;;;;;;5037724;28;20144;-65
2022/05/16 06:34:39;;;;;;;10.38;3.47;;;21.10;65.90;;;;;;5041076;28;20366;-65
2022/05/16 06:37:04;;;;;;;7.47;2.97;;;21.10;65.80;;;;;;5035896;28;20481;-65
2022/05/16 06:39:30;;;;;;;8.75;3.28;;;21.10;65.80;;;;;;5030456;28;20524;-65
2022/05/16 06:41:55;;;;;;;9.65;3.45;;;21.10;65.80;;;;;;5039468;28;20517;-65
2022/05/16 06:44:21;;;;;;;8.10;3.22;;;21.10;65.80;;;;;;5033541;28;20524;-65
2022/05/16 06:46:48;;;;;;;6.40;3.03;;;21.10;65.80;;;;;;5035515;28;20053;-65
2022/05/16 06:49:13;;;;;;;8.93;3.30;;;21.10;65.80;;;;;;5040318;28;20037;-65
2022/05/16 06:51:39;;;;;;;9.02;3.13;;;21.10;65.70;;;;;;5032670;28;20020;-65
2022/05/16 06:54:05;;;;;;;11.50;3.30;;;21.10;65.60;;;;;;5033787;28;20036;-65
2022/05/16 06:56:31;;;;;;;9.77;3.05;;;21.10;65.60;;;;;;5031817;28;20022;-64
2022/05/16 06:58:56;;;;;;;9.63;3.45;;;21.10;65.80;;;;;;5030696;28;20304;-65
2022/05/16 07:01:22;;;;;;;9.18;3.17;;;21.10;65.70;;;;;;5033156;28;20083;-65
2022/05/16 07:03:48;;;;;;;8.65;3.40;;;21.10;65.70;;;;;;5036995;28;20029;-65
2022/05/16 07:06:14;;;;;;;6.97;3.20;;;21.10;65.70;;;;;;5038710;28;20029;-65
2022/05/16 07:08:41;;;;;;;7.75;3.15;;;21.10;65.70;;;;;;5037979;28;20471;-65
2022/05/16 07:11:06;;;;;;;8.50;3.20;;;21.00;65.60;;;;;;5032847;28;20017;-65
2022/05/16 07:13:32;;;;;;;8.98;2.85;;;21.10;65.70;;;;;;5033682;28;20382;-65
2022/05/16 07:15:58;;;;;;;8.05;2.75;;;21.00;65.60;;;;;;5032018;28;20505;-64
2022/05/16 07:18:24;;;;;;;8.05;3.10;;;21.00;65.60;;;;;;5034530;28;20739;-65
2022/05/16 07:20:49;;;;;;;11.43;3.00;;;21.00;65.50;;;;;;5044696;28;20041;-65
2022/05/16 07:23:16;;;;;;;8.52;2.92;;;21.10;65.60;;;;;;5033465;28;20496;-64
2022/05/16 07:28:25;;;;;;;9.60;3.10;;;21.00;65.60;;;;;;5034192;28;20160;-65
2022/05/16 07:30:51;;;;;;;7.30;2.80;;;21.10;65.50;;;;;;5030810;28;20026;-65
2022/05/16 07:33:18;;;;;;;7.28;2.80;;;21.10;65.60;;;;;;5031681;28;20064;-64
2022/05/16 07:35:43;;;;;;;7.30;3.20;;;21.10;65.50;;;;;;5032501;28;20101;-65
2022/05/16 07:38:09;;;;;;;8.52;3.17;;;21.10;65.50;;;;;;5039064;28;20181;-64
2022/05/16 07:40:35;;;;;;;10.82;2.90;;;21.10;65.50;;;;;;5034588;28;20121;-65
2022/05/16 07:43:01;;;;;;;5.82;2.97;;;21.10;65.50;;;;;;5034878;28;20021;-64
2022/05/16 07:45:27;;;;;;;8.68;3.08;;;21.10;65.50;;;;;;5029878;28;20094;-65
2022/05/16 07:47:54;;;;;;;8.15;2.83;;;21.10;65.50;;;;;;5038235;28;20029;-64
2022/05/16 07:50:19;;;;;;;11.25;2.95;;;21.10;65.50;;;;;;5032680;28;20040;-65
2022/05/16 07:52:47;;;;;;;9.32;3.08;;;21.10;65.50;;;;;;5032332;28;20021;-64
2022/05/16 07:55:14;;;;;;;7.20;2.63;;;21.10;65.50;;;;;;5038499;28;20036;-64
2022/05/16 07:57:40;;;;;;;6.60;3.03;;;21.10;65.50;;;;;;5031066;28;20022;-64
2022/05/16 08:00:06;;;;;;;6.35;2.80;;;21.10;65.50;;;;;;5035376;28;20502;-65
2022/05/16 08:02:32;;;;;;;7.00;2.78;;;21.10;65.50;;;;;;5037883;28;20018;-65
2022/05/16 08:04:57;;;;;;;7.70;2.85;;;21.10;65.50;;;;;;5033992;28;20037;-65
2022/05/16 08:07:23;;;;;;;7.03;2.95;;;21.10;65.50;;;;;;5033270;28;20017;-64
2022/05/16 08:12:35;;;;;;;9.38;3.42;;;21.00;65.50;;;;;;5029968;28;20134;-64
2022/05/16 08:15:00;;;;;;;7.38;2.75;;;21.10;65.50;;;;;;5035688;28;20030;-64
2022/05/16 08:17:31;;;;;;;7.75;3.00;;;21.10;65.50;;;;;;5040275;28;20063;-64
2022/05/16 08:19:56;;;;;;;8.02;2.90;;;21.10;65.50;;;;;;5031557;28;20052;-64
2022/05/16 08:22:31;;;;;;;7.88;2.80;;;21.10;65.50;;;;;;5065409;28;20049;-64
2022/05/16 08:24:57;;;;;;;7.53;3.20;;;21.00;65.50;;;;;;5031564;28;20037;-64
2022/05/16 08:27:23;;;;;;;6.93;3.00;;;21.00;65.50;;;;;;5030304;28;20032;-64
2022/05/16 08:29:49;;;;;;;9.15;3.03;;;21.10;65.60;;;;;;5032890;28;20494;-64
2022/05/16 08:32:15;;;;;;;7.03;2.90;;;21.00;65.50;;;;;;5034211;28;20033;-64
2022/05/16 08:34:42;;;;;;;7.97;2.80;;;21.00;65.60;;;;;;5030465;28;20029;-64
2022/05/16 08:39:52;;;;;;;8.40;3.07;;;21.10;65.50;;;;;;5036826;28;20075;-64
2022/05/16 08:42:44;;;;;;;6.15;2.80;;;21.10;65.40;;;;;;5037997;28;20060;-65
2022/05/16 08:45:39;;;;;;;6.88;2.70;;;21.10;65.40;;;;;;5036359;28;20042;-64
2022/05/16 08:48:17;;;;;;;6.85;2.83;;;21.10;65.40;;;;;;5001021;28;20069;-65
2022/05/16 08:51:06;;;;;;;6.95;2.97;;;21.10;65.50;;;;;;5000781;28;20037;-65
2022/05/16 08:53:43;;;;;;;7.70;2.80;;;21.10;65.50;;;;;;4991194;28;20033;-65
2022/05/16 08:56:11;;;;;;;7.75;2.90;;;21.10;65.40;;;;;;4986350;28;20559;-65
2022/05/16 08:59:04;;;;;;;7.40;2.80;;;21.10;65.50;;;;;;4969982;28;20081;-65
2022/05/16 09:01:38;;;;;;;5.95;3.00;;;21.10;65.60;;;;;;4983609;28;20546;-65
2022/05/16 09:04:16;;;;;;;6.13;2.70;;;21.10;65.50;;;;;;4963964;28;20590;-64
2022/05/16 09:06:50;;;;;;;6.70;2.80;;;21.10;65.50;;;;;;4979458;28;20072;-64
2022/05/16 09:09:18;;;;;;;6.63;2.78;;;21.10;65.50;;;;;;4991165;28;20587;-64
2022/05/16 09:11:47;;;;;;;7.30;3.03;;;21.10;65.50;;;;;;5006961;28;20029;-64
2022/05/16 09:14:52;;;;;;;5.63;2.63;;;21.00;65.50;;;;;;4985842;28;20415;-64
2022/05/16 09:17:30;;;;;;;5.93;2.47;;;21.00;65.60;;;;;;5004736;28;20453;-64
2022/05/16 09:20:10;;;;;;;7.22;2.88;;;21.10;65.60;;;;;;5006467;28;20042;-64
2022/05/16 09:22:42;;;;;;;6.90;2.50;;;21.00;65.70;;;;;;5002171;28;20057;-64
2022/05/16 09:25:09;;;;;;;6.03;2.47;;;21.10;65.50;;;;;;5027992;28;20083;-65
2022/05/16 09:30:22;;;;;;;9.00;3.03;;;21.10;65.50;;;;;;5031502;28;20076;-65
2022/05/16 09:32:50;;;;;;;6.38;2.70;;;21.20;65.40;;;;;;5032872;28;20040;-65
2022/05/16 09:35:47;;;;;;;8.00;2.80;;;21.20;65.40;;;;;;5067163;28;20508;-65
2022/05/16 09:38:13;;;;;;;5.63;2.70;;;21.20;65.20;;;;;;5049147;28;20046;-65
2022/05/16 09:40:41;;;;;;;6.13;2.47;;;21.20;65.20;;;;;;5041742;28;20509;-65
2022/05/16 09:43:15;;;;;;;5.38;2.33;;;21.20;65.10;;;;;;5064624;28;20029;-65
2022/05/16 09:45:45;;;;;;;5.85;2.50;;;21.30;66.00;;;;;;5062842;28;20411;-65
2022/05/16 09:48:17;;;;;;;7.22;2.67;;;21.30;64.90;;;;;;5043037;28;20099;-65
2022/05/16 09:50:59;;;;;;;7.53;2.50;;;21.30;64.80;;;;;;5040621;28;20028;-65
2022/05/16 09:53:37;;;;;;;7.15;2.80;;;21.30;64.80;;;;;;5041094;28;20532;-65
2022/05/16 09:56:13;;;;;;;6.72;2.70;;;21.30;64.80;;;;;;5035908;28;20044;-65
2022/05/16 09:58:51;;;;;;;7.53;2.80;;;21.30;64.70;;;;;;5069833;28;20025;-65
2022/05/16 10:01:31;;;;;;;6.40;2.67;;;21.40;64.80;;;;;;5036802;28;20049;-65
2022/05/16 10:04:07;;;;;;;5.15;2.40;;;21.30;64.90;;;;;;5023679;28;20490;-65
2022/05/16 10:06:35;;;;;;;5.68;2.40;;;21.40;65.80;;;;;;5033911;28;20112;-65
2022/05/16 10:09:14;;;;;;;6.47;2.72;;;21.40;64.80;;;;;;5033184;28;20025;-65
2022/05/16 10:11:40;;;;;;;8.35;2.90;;;21.40;64.70;;;;;;5037754;28;20025;-65
2022/05/16 10:14:06;;;;;;;6.05;2.22;;;21.40;64.70;;;;;;5051494;28;20025;-65
2022/05/16 10:16:32;;;;;;;6.10;2.53;;;21.40;64.60;;;;;;5035735;28;20029;-65
2022/05/16 10:19:01;;;;;;;5.57;2.58;;;21.40;64.50;;;;;;5033703;28;20026;-65
2022/05/16 10:21:33;;;;;;;5.38;2.38;;;21.40;64.50;;;;;;5066801;28;20032;-65
2022/05/16 10:23:59;;;;;;;9.27;2.67;;;21.50;64.50;;;;;;5041898;28;20565;-65
2022/05/16 10:26:27;;;;;;;5.72;2.53;;;21.50;64.60;;;;;;5026833;28;20038;-65
2022/05/16 10:29:12;;;;;;;6.78;2.50;;;21.50;64.60;;;;;;5048250;28;20017;-65
2022/05/16 10:34:39;;;;;;;6.50;2.30;;;21.50;64.70;;;;;;5035319;28;19961;-65
2022/05/16 10:37:05;;;;;;;6.18;2.40;;;21.50;64.70;;;;;;5063659;28;20026;-65
2022/05/16 10:39:31;;;;;;;6.43;2.78;;;21.50;64.70;;;;;;5039973;28;20064;-65
2022/05/16 10:41:58;;;;;;;6.70;2.53;;;21.50;64.80;;;;;;5036802;28;20502;-65
2022/05/16 10:44:39;;;;;;;7.68;2.70;;;21.50;64.70;;;;;;5036832;28;20064;-65
2022/05/16 10:47:21;;;;;;;7.53;2.60;;;21.60;64.60;;;;;;5039094;28;20458;-65
2022/05/16 10:50:13;;;;;;;6.45;2.45;;;21.50;64.60;;;;;;5055567;28;20507;-65
2022/05/16 10:52:49;;;;;;;6.40;2.53;;;21.60;64.70;;;;;;5036711;28;20410;-65
2022/05/16 10:55:15;;;;;;;6.28;2.60;;;21.60;64.70;;;;;;5034385;28;20085;-64
2022/05/16 10:58:23;;;;;;;5.95;2.45;;;21.50;64.70;;;;;;5032121;28;20129;-65
2022/05/16 11:01:10;;;;;;;6.35;2.42;;;21.50;64.70;;;;;;5038114;28;20041;-65
2022/05/16 11:03:39;;;;;;;7.00;2.70;;;21.50;65.70;;;;;;5061953;28;20045;-65
2022/05/16 11:06:24;;;;;;;7.10;2.70;;;21.60;64.80;;;;;;5033843;28;20441;-65
2022/05/16 11:08:49;;;;;;;;;;;21.50;64.80;;;;;;5040619;28;20483;-64
2022/05/16 11:11:36;;;;;;;6.03;2.35;;;21.60;64.60;;;;;;5031160;28;19916;-65
2022/05/16 11:14:11;;;;;;;6.07;2.55;;;21.60;64.60;;;;;;5030646;28;20037;-65
2022/05/16 11:16:40;;;;;;;8.82;2.60;;;21.60;64.60;;;;;;5031687;28;20421;-64
2022/05/16 11:19:33;;;;;;;5.13;2.63;;;21.60;64.60;;;;;;5033428;28;20107;-65
2022/05/16 11:22:22;;;;;;;6.97;2.22;;;21.60;64.70;;;;;;5031859;28;20037;-64
2022/05/16 11:25:07;;;;;;;6.25;2.30;;;21.60;65.70;;;;;;5042134;28;20040;-65
2022/05/16 11:27:47;;;;;;;4.70;2.28;;;21.60;64.50;;;;;;5031986;28;20024;-65
2022/05/16 11:30:34;;;;;;;5.78;2.30;;;21.60;64.60;;;;;;5037244;28;20574;-65
2022/05/16 11:33:25;;;;;;;5.93;2.40;;;21.70;64.50;;;;;;5029093;28;20020;-65
2022/05/16 11:35:59;;;;;;;7.32;2.53;;;21.70;64.30;;;;;;5032661;28;20394;-64
2022/05/16 11:38:37;;;;;;;6.03;2.60;;;21.70;64.40;;;;;;5063931;28;20033;-65
2022/05/16 11:41:15;;;;;;;6.82;2.40;;;21.80;64.40;;;;;;5039653;28;20033;-65
2022/05/16 11:43:46;;;;;;;6.85;2.22;;;21.80;64.40;;;;;;5033703;28;20034;-65
2022/05/16 11:46:18;;;;;;;5.60;2.20;;;21.80;64.00;;;;;;5064778;28;20057;-64
2022/05/16 11:48:55;;;;;;;6.20;2.65;;;21.90;64.00;;;;;;5035927;28;20112;-64
2022/05/16 11:51:48;;;;;;;6.93;2.50;;;21.90;63.90;;;;;;5031119;28;20108;-65
2022/05/16 11:54:15;;;;;;;8.13;2.70;;;21.90;63.90;;;;;;5038062;28;20026;-64
2022/05/16 12:02:20;;;;;;;5.88;2.38;;;22.00;63.80;;;;;;5030060;28;20044;-65
2022/05/16 12:04:51;;;;;;;6.32;2.30;;;22.00;63.80;;;;;;5030564;28;20060;-65
2022/05/16 12:07:21;;;;;;;4.22;2.10;;;22.00;63.80;;;;;;5036218;28;20060;-65
2022/05/16 12:09:55;;;;;;;5.97;2.20;;;22.00;63.80;;;;;;5031843;28;20025;-65
2022/05/16 12:12:37;;;;;;;6.33;2.40;;;22.10;63.80;;;;;;5034372;28;20029;-65
2022/05/16 12:15:21;;;;;;;6.30;2.50;;;22.10;63.80;;;;;;5043103;28;20292;-65
2022/05/16 12:18:20;;;;;;;6.60;2.33;;;22.10;63.70;;;;;;5034529;28;20368;-65
2022/05/16 12:20:47;;;;;;;5.25;2.22;;;22.00;63.60;;;;;;5036531;28;20512;-65
2022/05/16 12:23:13;;;;;;;5.88;2.35;;;22.10;63.70;;;;;;5031757;28;20498;-65
2022/05/16 12:25:40;;;;;;;9.55;2.30;;;22.10;63.80;;;;;;5061026;28;20128;-65
2022/05/16 12:28:11;;;;;;;6.85;2.28;;;22.10;63.60;;;;;;5066161;28;20021;-65
2022/05/16 12:30:37;;;;;;;6.72;2.28;;;22.10;63.60;;;;;;5043848;28;20037;-65
2022/05/16 12:33:04;;;;;;;6.47;2.20;;;22.10;63.50;;;;;;5032721;28;20021;-65
2022/05/16 12:35:38;;;;;;;5.95;2.50;;;22.10;63.60;;;;;;5034009;28;20044;-64
2022/05/16 12:38:04;;;;;;;5.60;2.30;;;22.10;63.40;;;;;;5030129;28;20037;-64
2022/05/16 12:41:10;;;;;;;8.70;2.72;;;22.10;63.50;;;;;;5036126;28;20034;-65
2022/05/16 12:44:27;;;;;;;6.72;2.25;;;22.20;63.40;;;;;;5033222;28;20030;-65
2022/05/16 12:47:13;;;;;;;8.93;2.70;;;22.20;63.40;;;;;;4992512;28;20412;-65
2022/05/16 12:49:50;;;;;;;7.32;2.40;;;22.20;63.40;;;;;;5003056;28;20038;-64
2022/05/16 12:52:31;;;;;;;8.10;2.72;;;22.20;63.30;;;;;;4999829;28;20496;-65
2022/05/16 12:55:12;;;;;;;6.03;2.40;;;22.20;63.30;;;;;;4995537;28;20026;-64
2022/05/16 12:57:59;;;;;;;8.27;2.72;;;22.20;63.20;;;;;;5001387;28;20041;-64
2022/05/16 13:00:32;;;;;;;6.65;2.42;;;22.20;63.30;;;;;;4997354;28;20054;-65
2022/05/16 13:03:22;;;;;;;7.97;2.50;;;22.20;63.20;;;;;;5002866;28;20053;-64
2022/05/16 13:06:01;;;;;;;10.57;2.95;;;22.20;63.10;;;;;;5003092;28;20040;-65
2022/05/16 13:08:50;;;;;;;6.68;2.40;;;22.20;62.90;;;;;;5001389;28;20579;-65
2022/05/16 13:11:37;;;;;;;7.07;2.58;;;22.20;62.90;;;;;;4998279;28;20026;-64
2022/05/16 13:14:20;;;;;;;6.90;2.45;;;22.30;62.90;;;;;;5004062;28;20117;-64
2022/05/16 13:17:12;;;;;;;6.80;2.42;;;22.30;62.70;;;;;;4996060;28;20049;-65
2022/05/16 13:19:43;;;;;;;6.18;2.40;;;22.30;62.70;;;;;;4994334;28;20137;-65
2022/05/16 13:22:17;;;;;;;8.40;2.75;;;22.30;62.70;;;;;;4998935;28;20037;-64
2022/05/16 13:24:43;;;;;;;8.13;2.60;;;22.30;62.70;;;;;;5036098;28;20448;-64
2022/05/16 13:29:56;;;;;;;6.70;2.83;;;22.30;62.70;;;;;;5041568;28;20032;-64
2022/05/16 13:32:30;;;;;;;6.28;2.47;;;22.40;62.60;;;;;;5036309;28;20041;-65
2022/05/16 13:35:00;;;;;;;8.23;2.67;;;22.40;62.60;;;;;;5034573;28;20037;-65
2022/05/16 13:37:49;;;;;;;8.10;2.60;;;22.40;62.50;;;;;;5063614;28;20025;-65
2022/05/16 13:40:19;;;;;;;8.07;2.50;;;22.40;62.30;;;;;;5038881;28;20040;-65
2022/05/16 13:42:45;;;;;;;8.27;2.40;;;22.40;62.40;;;;;;5066622;28;20067;-65
2022/05/16 13:45:11;;;;;;;7.25;2.47;;;22.40;62.30;;;;;;5032192;28;20099;-64